createdAt,value
2023-05-10T00:00:20.059Z,514.00
2023-05-10T00:01:20.081Z,514.00
2023-05-10T00:02:20.118Z,511.00
2023-05-10T00:03:20.205Z,512.00
2023-05-10T00:04:20.186Z,514.00
2023-05-10T00:05:20.171Z,511.00
2023-05-10T00:06:20.148Z,510.00
2023-05-10T00:07:20.149Z,511.00
2023-05-10T00:08:20.192Z,513.00
2023-05-10T00:09:20.214Z,514.00
2023-05-10T00:10:20.234Z,512.00
2023-05-10T00:11:22.270Z,510.00
2023-05-10T00:12:20.218Z,511.00
2023-05-10T00:13:20.242Z,514.00
2023-05-10T00:14:20.175Z,516.00
2023-05-10T00:15:20.186Z,519.00
2023-05-10T00:16:20.283Z,518.00
2023-05-10T00:17:20.179Z,519.00
2023-05-10T00:18:20.206Z,520.00
2023-05-10T00:19:20.148Z,520.00
2023-05-10T00:20:20.138Z,519.00
2023-05-10T00:21:20.136Z,517.00
2023-05-10T00:22:20.151Z,518.00
2023-05-10T00:23:20.126Z,519.00
2023-05-10T00:24:20.140Z,518.00
2023-05-10T00:25:20.132Z,519.00
2023-05-10T00:26:20.117Z,518.00
2023-05-10T00:27:20.130Z,516.00
2023-05-10T00:28:20.132Z,517.00
2023-05-10T00:29:20.096Z,518.00
2023-05-10T00:30:20.081Z,519.00
2023-05-10T00:31:20.105Z,520.00
2023-05-10T00:32:20.170Z,519.00
2023-05-10T00:33:20.089Z,519.00
2023-05-10T00:34:20.096Z,519.00
2023-05-10T00:35:20.072Z,520.00
2023-05-10T00:36:20.036Z,521.00
2023-05-10T00:37:20.040Z,520.00
2023-05-10T00:38:20.037Z,521.00
2023-05-10T00:39:20.021Z,520.00
2023-05-10T00:40:20.039Z,520.00
2023-05-10T00:41:20.058Z,518.00
2023-05-10T00:42:20.006Z,519.00
2023-05-10T00:43:19.996Z,519.00
2023-05-10T00:44:19.987Z,518.00
2023-05-10T00:45:19.979Z,516.00
2023-05-10T00:46:20.067Z,518.00
2023-05-10T00:47:19.991Z,517.00
2023-05-10T00:48:19.979Z,514.00
2023-05-10T00:49:19.959Z,514.00
2023-05-10T00:50:19.974Z,514.00
2023-05-10T00:51:19.965Z,513.00
2023-05-10T00:52:19.931Z,514.00
2023-05-10T00:53:19.954Z,514.00
2023-05-10T00:54:19.945Z,515.00
2023-05-10T00:55:19.923Z,515.00
2023-05-10T00:56:19.922Z,515.00
2023-05-10T00:57:19.917Z,512.00
2023-05-10T00:58:19.895Z,510.00
2023-05-10T00:59:19.923Z,509.00
2023-05-10T01:00:19.875Z,508.00
2023-05-10T01:01:19.921Z,507.00
2023-05-10T01:02:19.945Z,506.00
2023-05-10T01:03:20.100Z,508.00
2023-05-10T01:04:19.847Z,508.00
2023-05-10T01:05:19.887Z,510.00
2023-05-10T01:06:19.857Z,511.00
2023-05-10T01:07:19.835Z,511.00
2023-05-10T01:08:19.851Z,513.00
2023-05-10T01:09:19.836Z,512.00
2023-05-10T01:10:19.830Z,513.00
2023-05-10T01:11:19.841Z,514.00
2023-05-10T01:12:19.908Z,514.00
2023-05-10T01:13:19.885Z,513.00
2023-05-10T01:14:19.781Z,514.00
2023-05-10T01:15:19.816Z,514.00
2023-05-10T01:16:19.804Z,514.00
2023-05-10T01:17:19.807Z,515.00
2023-05-10T01:18:19.797Z,513.00
2023-05-10T01:19:19.768Z,511.00
2023-05-10T01:20:19.886Z,511.00
2023-05-10T01:21:19.824Z,510.00
2023-05-10T01:22:19.755Z,511.00
2023-05-10T01:23:19.760Z,511.00
2023-05-10T01:24:19.772Z,514.00
2023-05-10T01:25:19.730Z,514.00
2023-05-10T01:26:19.705Z,516.00
2023-05-10T01:27:19.718Z,516.00
2023-05-10T01:28:19.696Z,519.00
2023-05-10T01:29:19.731Z,518.00
2023-05-10T01:31:19.758Z,516.00
2023-05-10T01:32:19.663Z,516.00
2023-05-10T01:33:19.684Z,513.00
2023-05-10T01:34:19.679Z,509.00
2023-05-10T01:35:19.663Z,507.00
2023-05-10T01:36:19.651Z,506.00
2023-05-10T01:37:19.631Z,507.00
2023-05-10T01:38:19.623Z,505.00
2023-05-10T01:39:19.643Z,505.00
2023-05-10T01:40:19.628Z,503.00
2023-05-10T01:41:19.700Z,504.00
2023-05-10T01:42:19.626Z,504.00
2023-05-10T01:43:19.612Z,504.00
2023-05-10T01:44:19.585Z,504.00
2023-05-10T01:45:19.597Z,504.00
2023-05-10T01:46:19.658Z,506.00
2023-05-10T01:47:19.578Z,510.00
2023-05-10T01:48:19.588Z,510.00
2023-05-10T01:49:19.569Z,511.00
2023-05-10T01:50:19.669Z,513.00
2023-05-10T01:51:19.560Z,511.00
2023-05-10T01:52:19.527Z,512.00
2023-05-10T01:53:19.519Z,510.00
2023-05-10T01:54:19.549Z,509.00
2023-05-10T01:55:19.576Z,505.00
2023-05-10T01:56:19.526Z,507.00
2023-05-10T01:57:19.497Z,509.00
2023-05-10T01:58:19.521Z,509.00
2023-05-10T01:59:19.536Z,508.00
2023-05-10T02:00:19.490Z,507.00
2023-05-10T02:01:19.547Z,506.00
2023-05-10T02:02:19.483Z,505.00
2023-05-10T02:03:19.516Z,506.00
2023-05-10T02:04:19.492Z,508.00
2023-05-10T02:05:19.445Z,506.00
2023-05-10T02:06:19.449Z,508.00
2023-05-10T02:07:19.459Z,507.00
2023-05-10T02:08:19.431Z,506.00
2023-05-10T02:09:19.419Z,509.00
2023-05-10T02:10:19.524Z,510.00
2023-05-10T02:11:19.407Z,511.00
2023-05-10T02:12:19.400Z,510.00
2023-05-10T02:13:19.456Z,509.00
2023-05-10T02:14:19.393Z,505.00
2023-05-10T02:15:19.410Z,505.00
2023-05-10T02:16:19.515Z,507.00
2023-05-10T02:17:19.368Z,507.00
2023-05-10T02:18:19.400Z,507.00
2023-05-10T02:19:19.353Z,506.00
2023-05-10T02:20:19.556Z,508.00
2023-05-10T02:21:19.336Z,507.00
2023-05-10T02:22:19.401Z,508.00
2023-05-10T02:23:19.318Z,507.00
2023-05-10T02:24:19.335Z,509.00
2023-05-10T02:25:19.322Z,508.00
2023-05-10T02:26:19.328Z,507.00
2023-05-10T02:27:19.307Z,506.00
2023-05-10T02:28:19.312Z,506.00
2023-05-10T02:29:19.306Z,504.00
2023-05-10T02:30:19.280Z,503.00
2023-05-10T02:31:19.358Z,502.00
2023-05-10T02:32:19.281Z,503.00
2023-05-10T02:33:19.256Z,503.00
2023-05-10T02:34:19.345Z,503.00
2023-05-10T02:35:19.248Z,504.00
2023-05-10T02:36:19.280Z,504.00
2023-05-10T02:37:19.269Z,503.00
2023-05-10T02:38:19.232Z,505.00
2023-05-10T02:39:19.246Z,505.00
2023-05-10T02:40:19.385Z,507.00
2023-05-10T02:41:19.221Z,509.00
2023-05-10T02:42:19.219Z,508.00
2023-05-10T02:43:19.212Z,508.00
2023-05-10T02:44:19.199Z,510.00
2023-05-10T02:45:19.184Z,511.00
2023-05-10T02:46:19.218Z,510.00
2023-05-10T02:47:19.165Z,508.00
2023-05-10T02:48:19.174Z,507.00
2023-05-10T02:49:19.182Z,506.00
2023-05-10T02:50:19.226Z,508.00
2023-05-10T02:51:19.215Z,510.00
2023-05-10T02:52:19.161Z,511.00
2023-05-10T02:53:19.141Z,511.00
2023-05-10T02:54:19.163Z,509.00
2023-05-10T02:55:19.156Z,509.00
2023-05-10T02:56:19.119Z,508.00
2023-05-10T02:57:19.156Z,508.00
2023-05-10T02:58:19.139Z,506.00
2023-05-10T02:59:19.124Z,507.00
2023-05-10T03:00:19.138Z,505.00
2023-05-10T03:01:19.149Z,505.00
2023-05-10T03:02:19.139Z,504.00
2023-05-10T03:03:19.140Z,505.00
2023-05-10T03:04:19.214Z,507.00
2023-05-10T03:05:19.132Z,509.00
2023-05-10T03:06:19.142Z,509.00
2023-05-10T03:07:19.152Z,509.00
2023-05-10T03:08:19.184Z,507.00
2023-05-10T03:09:19.166Z,507.00
2023-05-10T03:10:19.364Z,507.00
2023-05-10T03:11:19.149Z,508.00
2023-05-10T03:12:19.159Z,510.00
2023-05-10T03:13:19.236Z,512.00
2023-05-10T03:14:19.191Z,514.00
2023-05-10T03:15:19.195Z,512.00
2023-05-10T03:16:19.230Z,512.00
2023-05-10T03:17:19.184Z,515.00
2023-05-10T03:18:19.202Z,514.00
2023-05-10T03:19:19.222Z,514.00
2023-05-10T03:20:19.218Z,513.00
2023-05-10T03:21:19.219Z,510.00
2023-05-10T03:22:19.224Z,508.00
2023-05-10T03:23:19.235Z,509.00
2023-05-10T03:24:19.215Z,511.00
2023-05-10T03:25:19.216Z,510.00
2023-05-10T03:26:19.276Z,509.00
2023-05-10T03:27:19.221Z,509.00
2023-05-10T03:28:19.282Z,507.00
2023-05-10T03:29:19.281Z,506.00
2023-05-10T03:30:19.418Z,504.00
2023-05-10T03:31:19.266Z,503.00
2023-05-10T03:32:19.222Z,504.00
2023-05-10T03:33:19.226Z,505.00
2023-05-10T03:34:19.232Z,502.00
2023-05-10T03:35:19.227Z,503.00
2023-05-10T03:36:19.274Z,504.00
2023-05-10T03:37:19.279Z,505.00
2023-05-10T03:38:19.317Z,505.00
2023-05-10T03:39:19.346Z,506.00
2023-05-10T03:40:19.539Z,505.00
2023-05-10T03:41:19.362Z,504.00
2023-05-10T03:42:19.419Z,505.00
2023-05-10T03:43:19.432Z,504.00
2023-05-10T03:44:19.428Z,504.00
2023-05-10T03:45:19.490Z,504.00
2023-05-10T03:46:19.443Z,505.00
2023-05-10T03:47:19.450Z,506.00
2023-05-10T03:48:19.437Z,503.00
2023-05-10T03:49:19.452Z,505.00
2023-05-10T03:50:19.603Z,504.00
2023-05-10T03:51:19.484Z,503.00
2023-05-10T03:52:19.529Z,503.00
2023-05-10T03:53:19.533Z,500.00
2023-05-10T03:54:19.543Z,501.00
2023-05-10T03:55:19.540Z,504.00
2023-05-10T03:56:19.539Z,500.00
2023-05-10T03:57:19.523Z,500.00
2023-05-10T03:58:19.539Z,499.00
2023-05-10T03:59:19.546Z,498.00
2023-05-10T04:00:19.714Z,501.00
2023-05-10T04:01:19.547Z,501.00
2023-05-10T04:02:19.589Z,501.00
2023-05-10T04:03:19.704Z,498.00
2023-05-10T04:04:19.959Z,500.00
2023-05-10T04:05:19.660Z,499.00
2023-05-10T04:06:19.711Z,499.00
2023-05-10T04:07:19.658Z,501.00
2023-05-10T04:08:19.668Z,502.00
2023-05-10T04:09:19.723Z,501.00
2023-05-10T04:10:19.766Z,501.00
2023-05-10T04:11:19.693Z,505.00
2023-05-10T04:12:19.692Z,505.00
2023-05-10T04:13:19.742Z,504.00
2023-05-10T04:14:19.701Z,508.00
2023-05-10T04:15:19.717Z,506.00
2023-05-10T04:16:19.782Z,505.00
2023-05-10T04:17:19.751Z,506.00
2023-05-10T04:18:19.704Z,506.00
2023-05-10T04:19:19.822Z,505.00
2023-05-10T04:20:19.767Z,508.00
2023-05-10T04:21:19.694Z,507.00
2023-05-10T04:22:19.722Z,507.00
2023-05-10T04:23:19.699Z,509.00
2023-05-10T04:24:19.705Z,512.00
2023-05-10T04:25:19.702Z,510.00
2023-05-10T04:26:19.693Z,510.00
2023-05-10T04:27:19.705Z,510.00
2023-05-10T04:28:19.744Z,507.00
2023-05-10T04:29:19.695Z,509.00
2023-05-10T04:30:19.692Z,505.00
2023-05-10T04:31:19.828Z,505.00
2023-05-10T04:32:19.700Z,505.00
2023-05-10T04:33:19.696Z,507.00
2023-05-10T04:34:20.128Z,504.00
2023-05-10T04:35:19.721Z,503.00
2023-05-10T04:36:19.717Z,505.00
2023-05-10T04:37:19.714Z,503.00
2023-05-10T04:38:19.722Z,504.00
2023-05-10T04:39:19.728Z,503.00
2023-05-10T04:40:19.745Z,500.00
2023-05-10T04:41:19.741Z,501.00
2023-05-10T04:42:19.749Z,500.00
2023-05-10T04:43:19.764Z,501.00
2023-05-10T04:44:19.783Z,504.00
2023-05-10T04:45:19.769Z,506.00
2023-05-10T04:46:19.817Z,506.00
2023-05-10T04:47:19.777Z,506.00
2023-05-10T04:48:19.751Z,507.00
2023-05-10T04:49:19.754Z,508.00
2023-05-10T04:50:19.787Z,507.00
2023-05-10T04:51:19.797Z,509.00
2023-05-10T04:52:19.794Z,508.00
2023-05-10T04:53:19.799Z,508.00
2023-05-10T04:54:19.795Z,511.00
2023-05-10T04:55:19.782Z,512.00
2023-05-10T04:56:19.801Z,511.00
2023-05-10T04:57:19.824Z,511.00
2023-05-10T04:58:19.818Z,511.00
2023-05-10T04:59:19.836Z,510.00
2023-05-10T05:00:19.830Z,512.00
2023-05-10T05:01:19.854Z,512.00
2023-05-10T05:02:19.852Z,511.00
2023-05-10T05:03:19.978Z,512.00
2023-05-10T05:04:19.836Z,511.00
2023-05-10T05:05:19.858Z,509.00
2023-05-10T05:06:19.841Z,509.00
2023-05-10T05:07:19.865Z,511.00
2023-05-10T05:08:19.844Z,508.00
2023-05-10T05:09:19.875Z,506.00
2023-05-10T05:10:20.122Z,508.00
2023-05-10T05:11:19.866Z,508.00
2023-05-10T05:12:19.870Z,506.00
2023-05-10T05:13:19.927Z,507.00
2023-05-10T05:14:19.870Z,511.00
2023-05-10T05:15:19.880Z,515.00
2023-05-10T05:16:19.886Z,515.00
2023-05-10T05:17:19.870Z,512.00
2023-05-10T05:18:19.898Z,509.00
2023-05-10T05:19:19.905Z,508.00
2023-05-10T05:20:20.007Z,509.00
2023-05-10T05:21:19.960Z,512.00
2023-05-10T05:22:19.909Z,512.00
2023-05-10T05:23:19.924Z,513.00
2023-05-10T05:24:19.933Z,516.00
2023-05-10T05:25:19.934Z,518.00
2023-05-10T05:26:19.955Z,518.00
2023-05-10T05:27:19.956Z,520.00
2023-05-10T05:28:19.974Z,523.00
2023-05-10T05:29:19.977Z,521.00
2023-05-10T05:30:20.011Z,520.00
2023-05-10T05:31:20.081Z,528.00
2023-05-10T05:32:20.020Z,587.00
2023-05-10T05:33:20.029Z,584.00
2023-05-10T05:34:20.155Z,595.00
2023-05-10T05:35:20.055Z,606.00
2023-05-10T05:36:20.042Z,600.00
2023-05-10T05:37:20.044Z,597.00
2023-05-10T05:38:20.073Z,600.00
2023-05-10T05:39:20.044Z,610.00
2023-05-10T05:40:20.036Z,662.00
2023-05-10T05:41:20.074Z,676.00
2023-05-10T05:42:20.083Z,709.00
2023-05-10T05:43:20.165Z,730.00
2023-05-10T05:44:20.236Z,758.00
2023-05-10T05:45:20.426Z,787.00
2023-05-10T05:46:20.353Z,836.00
2023-05-10T05:47:20.400Z,853.00
2023-05-10T05:48:20.447Z,863.00
2023-05-10T05:49:20.686Z,864.00
2023-05-10T05:50:20.529Z,882.00
2023-05-10T05:51:20.584Z,892.00
2023-05-10T05:52:20.619Z,910.00
2023-05-10T05:53:20.681Z,919.00
2023-05-10T05:54:21.141Z,932.00
2023-05-10T05:55:20.758Z,944.00
2023-05-10T05:56:20.789Z,945.00
2023-05-10T05:57:20.814Z,948.00
2023-05-10T05:58:20.870Z,953.00
2023-05-10T05:59:20.893Z,806.00
2023-05-10T06:00:20.936Z,764.00
2023-05-10T06:01:21.014Z,686.00
2023-05-10T06:02:21.096Z,672.00
2023-05-10T06:03:21.220Z,664.00
2023-05-10T06:04:21.137Z,652.00
2023-05-10T06:05:21.080Z,639.00
2023-05-10T06:06:21.104Z,630.00
2023-05-10T06:07:21.117Z,617.00
2023-05-10T06:08:21.149Z,608.00
2023-05-10T06:09:21.162Z,612.00
2023-05-10T06:10:21.192Z,612.00
2023-05-10T06:11:21.221Z,622.00
2023-05-10T06:12:21.260Z,628.00
2023-05-10T06:13:21.280Z,637.00
2023-05-10T06:14:21.277Z,639.00
2023-05-10T06:15:21.678Z,646.00
2023-05-10T06:16:21.327Z,658.00
2023-05-10T06:17:21.291Z,670.00
2023-05-10T06:18:21.300Z,732.00
2023-05-10T06:19:21.670Z,740.00
2023-05-10T06:20:21.669Z,747.00
2023-05-10T06:21:21.492Z,771.00
2023-05-10T06:22:21.551Z,794.00
2023-05-10T06:23:21.624Z,807.00
2023-05-10T06:24:21.660Z,823.00
2023-05-10T06:25:21.709Z,841.00
2023-05-10T06:26:21.742Z,870.00
2023-05-10T06:27:21.785Z,857.00
2023-05-10T06:28:21.806Z,899.00
2023-05-10T06:29:21.848Z,911.00
2023-05-10T06:30:22.199Z,925.00
2023-05-10T06:31:21.934Z,919.00
2023-05-10T06:32:21.957Z,911.00
2023-05-10T06:33:22.020Z,936.00
2023-05-10T06:34:22.183Z,944.00
2023-05-10T06:35:22.042Z,948.00
2023-05-10T06:36:22.072Z,958.00
2023-05-10T06:37:22.063Z,965.00
2023-05-10T06:38:22.095Z,984.00
2023-05-10T06:39:22.131Z,1085.00
2023-05-10T06:40:22.132Z,1163.00
2023-05-10T06:41:24.604Z,1169.00
2023-05-10T06:42:22.367Z,1173.00
2023-05-10T06:43:22.412Z,1173.00
2023-05-10T06:44:22.415Z,1168.00
2023-05-10T06:45:22.424Z,1155.00
2023-05-10T06:46:22.431Z,1146.00
2023-05-10T06:47:22.412Z,1126.00
2023-05-10T06:48:22.567Z,1098.00
2023-05-10T06:49:22.415Z,1106.00
2023-05-10T06:50:22.428Z,1111.00
2023-05-10T06:51:22.424Z,1114.00
2023-05-10T06:52:22.419Z,1109.00
2023-05-10T06:53:22.404Z,1107.00
2023-05-10T06:54:22.400Z,1108.00
2023-05-10T06:55:22.410Z,1114.00
2023-05-10T06:56:22.446Z,1098.00
2023-05-10T06:57:31.224Z,1084.00
2023-05-10T06:58:23.411Z,1107.00
2023-05-10T06:59:23.236Z,1124.00
2023-05-10T07:00:22.393Z,1095.00
2023-05-10T07:01:22.443Z,1038.00
2023-05-10T07:02:22.418Z,1117.00
2023-05-10T07:03:22.466Z,1122.00
2023-05-10T07:04:22.406Z,1116.00
2023-05-10T07:05:22.429Z,1118.00
2023-05-10T07:06:32.774Z,1113.00
2023-05-10T07:07:23.327Z,1095.00
2023-05-10T07:08:22.341Z,1087.00
2023-05-10T07:09:22.329Z,1003.00
2023-05-10T07:10:22.334Z,1025.00
2023-05-10T07:11:22.362Z,1050.00
2023-05-10T07:12:22.338Z,1099.00
2023-05-10T07:13:22.349Z,951.00
2023-05-10T07:14:22.294Z,1138.00
2023-05-10T07:15:22.289Z,1165.00
2023-05-10T07:16:22.338Z,1174.00
2023-05-10T07:17:22.331Z,1196.00
2023-05-10T07:18:22.376Z,1207.00
2023-05-10T07:19:22.357Z,1208.00
2023-05-10T07:20:22.421Z,1205.00
2023-05-10T07:21:22.500Z,1202.00
2023-05-10T07:22:22.534Z,1210.00
2023-05-10T07:23:22.594Z,1208.00
2023-05-10T07:24:22.662Z,1067.00
2023-05-10T07:25:22.727Z,1132.00
2023-05-10T07:26:22.793Z,1069.00
2023-05-10T07:27:22.834Z,1081.00
2023-05-10T07:28:22.871Z,1081.00
2023-05-10T07:29:22.936Z,1013.00
2023-05-10T07:30:22.969Z,1058.00
2023-05-10T07:31:22.917Z,1057.00
2023-05-10T07:32:23.274Z,1007.00
2023-05-10T07:33:23.004Z,1072.00
2023-05-10T07:34:22.972Z,1082.00
2023-05-10T07:35:23.013Z,1116.00
2023-05-10T07:36:23.046Z,1092.00
2023-05-10T07:37:23.065Z,1067.00
2023-05-10T07:38:23.105Z,1039.00
2023-05-10T07:39:27.476Z,1074.00
2023-05-10T07:40:24.150Z,861.00
2023-05-10T07:41:23.145Z,826.00
2023-05-10T07:42:23.145Z,1013.00
2023-05-10T07:43:23.229Z,922.00
2023-05-10T07:44:23.124Z,1028.00
2023-05-10T07:45:23.137Z,1041.00
2023-05-10T07:46:23.214Z,1042.00
2023-05-10T07:47:23.122Z,1038.00
2023-05-10T07:48:23.100Z,1028.00
2023-05-10T07:49:23.192Z,948.00
2023-05-10T07:50:23.203Z,912.00
2023-05-10T07:51:23.097Z,916.00
2023-05-10T07:52:23.097Z,909.00
2023-05-10T07:53:23.067Z,936.00
2023-05-10T07:54:23.057Z,893.00
2023-05-10T07:55:23.207Z,918.00
2023-05-10T07:56:23.041Z,846.00
2023-05-10T07:57:23.016Z,820.00
2023-05-10T07:58:23.028Z,784.00
2023-05-10T07:59:23.011Z,737.00
2023-05-10T08:00:23.197Z,714.00
2023-05-10T08:01:23.012Z,710.00
2023-05-10T08:02:23.066Z,676.00
2023-05-10T08:03:23.012Z,655.00
2023-05-10T08:04:23.017Z,648.00
2023-05-10T08:05:23.005Z,637.00
2023-05-10T08:06:22.969Z,637.00
2023-05-10T08:07:22.956Z,638.00
2023-05-10T08:08:22.998Z,636.00
2023-05-10T08:09:22.981Z,629.00
2023-05-10T08:10:22.957Z,626.00
2023-05-10T08:11:22.938Z,622.00
2023-05-10T08:12:22.941Z,615.00
2023-05-10T08:13:22.951Z,611.00
2023-05-10T08:14:22.930Z,611.00
2023-05-10T08:15:23.235Z,609.00
2023-05-10T08:16:23.013Z,606.00
2023-05-10T08:17:24.825Z,599.00
2023-05-10T08:18:23.055Z,596.00
2023-05-10T08:19:22.947Z,596.00
2023-05-10T08:20:23.227Z,595.00
2023-05-10T08:21:22.996Z,591.00
2023-05-10T08:22:22.979Z,589.00
2023-05-10T08:23:22.991Z,595.00
2023-05-10T08:24:23.035Z,600.00
2023-05-10T08:25:23.014Z,604.00
2023-05-10T08:26:23.054Z,603.00
2023-05-10T08:27:23.056Z,607.00
2023-05-10T08:28:23.087Z,610.00
2023-05-10T08:29:23.112Z,612.00
2023-05-10T08:30:23.134Z,609.00
2023-05-10T08:31:23.150Z,609.00
2023-05-10T08:32:23.150Z,610.00
2023-05-10T08:33:23.186Z,606.00
2023-05-10T08:34:23.417Z,603.00
2023-05-10T08:35:23.213Z,602.00
2023-05-10T08:36:23.253Z,598.00
2023-05-10T08:37:23.262Z,595.00
2023-05-10T08:38:23.315Z,634.00
2023-05-10T08:39:29.780Z,640.00
2023-05-10T08:40:24.315Z,649.00
2023-05-10T08:41:23.366Z,670.00
2023-05-10T08:42:23.264Z,685.00
2023-05-10T08:43:23.280Z,728.00
2023-05-10T08:44:23.279Z,736.00
2023-05-10T08:45:23.759Z,748.00
2023-05-10T08:46:24.229Z,756.00
2023-05-10T08:47:23.296Z,766.00
2023-05-10T08:48:23.253Z,776.00
2023-05-10T08:49:23.255Z,788.00
2023-05-10T08:50:23.240Z,800.00
2023-05-10T08:51:23.230Z,807.00
2023-05-10T08:52:23.224Z,774.00
2023-05-10T08:53:23.228Z,805.00
2023-05-10T08:54:23.237Z,810.00
2023-05-10T08:55:23.232Z,820.00
2023-05-10T08:56:23.218Z,790.00
2023-05-10T08:57:23.185Z,865.00
2023-05-10T08:58:23.220Z,867.00
2023-05-10T08:59:23.186Z,865.00
2023-05-10T09:00:23.181Z,866.00
2023-05-10T09:01:23.319Z,870.00
2023-05-10T09:02:23.174Z,878.00
2023-05-10T09:03:23.239Z,886.00
2023-05-10T09:04:23.198Z,892.00
2023-05-10T09:05:23.184Z,898.00
2023-05-10T09:06:23.140Z,903.00
2023-05-10T09:07:23.137Z,876.00
2023-05-10T09:08:23.128Z,900.00
2023-05-10T09:09:23.110Z,923.00
2023-05-10T09:10:23.228Z,925.00
2023-05-10T09:11:23.103Z,927.00
2023-05-10T09:12:23.118Z,932.00
2023-05-10T09:13:23.103Z,851.00
2023-05-10T09:14:23.082Z,877.00
2023-05-10T09:15:23.248Z,943.00
2023-05-10T09:16:23.176Z,954.00
2023-05-10T09:17:23.147Z,956.00
2023-05-10T09:18:23.101Z,948.00
2023-05-10T09:19:23.083Z,915.00
2023-05-10T09:20:23.240Z,931.00
2023-05-10T09:21:23.143Z,923.00
2023-05-10T09:22:23.201Z,938.00
2023-05-10T09:23:23.221Z,940.00
2023-05-10T09:24:23.254Z,939.00
2023-05-10T09:25:23.754Z,943.00
2023-05-10T09:26:23.352Z,883.00
2023-05-10T09:27:23.323Z,899.00
2023-05-10T09:28:23.332Z,829.00
2023-05-10T09:29:23.286Z,782.00
2023-05-10T09:30:23.740Z,739.00
2023-05-10T09:31:23.567Z,747.00
2023-05-10T09:32:23.344Z,766.00
2023-05-10T09:33:23.296Z,777.00
2023-05-10T09:34:23.301Z,773.00
2023-05-10T09:35:23.293Z,770.00
2023-05-10T09:36:23.735Z,770.00
2023-05-10T09:37:23.316Z,796.00
2023-05-10T09:38:23.316Z,802.00
2023-05-10T09:39:23.316Z,792.00
2023-05-10T09:40:23.339Z,730.00
2023-05-10T09:41:23.337Z,721.00
2023-05-10T09:42:23.315Z,716.00
2023-05-10T09:43:23.344Z,706.00
2023-05-10T09:44:23.347Z,703.00
2023-05-10T09:45:23.758Z,751.00
2023-05-10T09:46:23.396Z,715.00
2023-05-10T09:47:23.436Z,720.00
2023-05-10T09:48:23.373Z,844.00
2023-05-10T09:49:23.357Z,785.00
2023-05-10T09:50:23.759Z,880.00
2023-05-10T09:51:23.362Z,878.00
2023-05-10T09:52:23.365Z,837.00
2023-05-10T09:53:23.357Z,778.00
2023-05-10T09:54:23.358Z,871.00
2023-05-10T09:55:23.391Z,856.00
2023-05-10T09:56:23.367Z,816.00
2023-05-10T09:57:23.343Z,861.00
2023-05-10T09:58:23.367Z,883.00
2023-05-10T09:59:23.348Z,784.00
2023-05-10T10:00:23.357Z,853.00
2023-05-10T10:01:23.412Z,809.00
2023-05-10T10:02:23.380Z,841.00
2023-05-10T10:03:23.376Z,867.00
2023-05-10T10:04:23.354Z,837.00
2023-05-10T10:05:23.333Z,910.00
2023-05-10T10:06:30.027Z,879.00
2023-05-10T10:07:24.349Z,825.00
2023-05-10T10:08:23.331Z,867.00
2023-05-10T10:09:23.312Z,786.00
2023-05-10T10:10:23.311Z,770.00
2023-05-10T10:11:23.310Z,752.00
2023-05-10T10:12:23.296Z,732.00
2023-05-10T10:13:23.293Z,723.00
2023-05-10T10:14:23.287Z,712.00
2023-05-10T10:15:23.514Z,697.00
2023-05-10T10:16:23.857Z,683.00
2023-05-10T10:17:23.314Z,668.00
2023-05-10T10:18:23.251Z,677.00
2023-05-10T10:19:23.244Z,681.00
2023-05-10T10:20:23.244Z,746.00
2023-05-10T10:21:23.281Z,767.00
2023-05-10T10:22:23.232Z,770.00
2023-05-10T10:23:23.273Z,766.00
2023-05-10T10:24:23.294Z,758.00
2023-05-10T10:25:23.388Z,685.00
2023-05-10T10:26:23.773Z,670.00
2023-05-10T10:27:23.490Z,586.00
2023-05-10T10:28:24.018Z,621.00
2023-05-10T10:29:23.558Z,620.00
2023-05-10T10:30:23.531Z,612.00
2023-05-10T10:31:23.617Z,608.00
2023-05-10T10:32:23.548Z,602.00
2023-05-10T10:33:28.479Z,589.00
2023-05-10T10:34:24.511Z,586.00
2023-05-10T10:35:23.521Z,585.00
2023-05-10T10:36:23.797Z,583.00
2023-05-10T10:37:23.503Z,579.00
2023-05-10T10:38:23.494Z,575.00
2023-05-10T10:39:23.489Z,575.00
2023-05-10T10:40:23.479Z,573.00
2023-05-10T10:41:23.474Z,570.00
2023-05-10T10:42:23.464Z,565.00
2023-05-10T10:43:23.447Z,559.00
2023-05-10T10:44:23.506Z,556.00
2023-05-10T10:45:23.435Z,553.00
2023-05-10T10:46:23.474Z,549.00
2023-05-10T10:47:23.466Z,550.00
2023-05-10T10:48:23.412Z,549.00
2023-05-10T10:49:23.443Z,544.00
2023-05-10T10:50:23.410Z,537.00
2023-05-10T10:51:23.424Z,536.00
2023-05-10T10:52:23.399Z,536.00
2023-05-10T10:53:23.447Z,535.00
2023-05-10T10:54:23.390Z,535.00
2023-05-10T10:55:23.396Z,537.00
2023-05-10T10:56:23.428Z,536.00
2023-05-10T10:57:23.427Z,533.00
2023-05-10T10:58:23.441Z,529.00
2023-05-10T10:59:23.431Z,527.00
2023-05-10T11:00:23.446Z,525.00
2023-05-10T11:01:23.517Z,524.00
2023-05-10T11:02:23.525Z,524.00
2023-05-10T11:03:23.486Z,525.00
2023-05-10T11:04:23.549Z,525.00
2023-05-10T11:05:23.505Z,527.00
2023-05-10T11:06:23.788Z,528.00
2023-05-10T11:07:23.524Z,528.00
2023-05-10T11:08:23.543Z,525.00
2023-05-10T11:09:23.555Z,523.00
2023-05-10T11:10:23.575Z,522.00
2023-05-10T11:11:23.596Z,522.00
2023-05-10T11:12:23.661Z,519.00
2023-05-10T11:13:23.633Z,531.00
2023-05-10T11:14:23.693Z,543.00
2023-05-10T11:15:23.695Z,536.00
2023-05-10T11:16:23.734Z,535.00
2023-05-10T11:17:23.857Z,534.00
2023-05-10T11:18:23.776Z,535.00
2023-05-10T11:19:23.798Z,536.00
2023-05-10T11:20:23.825Z,549.00
2023-05-10T11:21:23.855Z,557.00
2023-05-10T11:22:23.891Z,567.00
2023-05-10T11:23:23.909Z,601.00
2023-05-10T11:24:23.915Z,620.00
2023-05-10T11:25:23.935Z,627.00
2023-05-10T11:26:23.963Z,633.00
2023-05-10T11:27:23.948Z,634.00
2023-05-10T11:28:23.976Z,629.00
2023-05-10T11:29:23.980Z,627.00
2023-05-10T11:30:23.972Z,623.00
2023-05-10T11:31:24.054Z,613.00
2023-05-10T11:32:24.117Z,595.00
2023-05-10T11:33:24.082Z,582.00
2023-05-10T11:34:24.066Z,580.00
2023-05-10T11:35:24.118Z,563.00
2023-05-10T11:36:24.203Z,551.00
2023-05-10T11:37:24.233Z,540.00
2023-05-10T11:38:24.288Z,545.00
2023-05-10T11:39:24.330Z,544.00
2023-05-10T11:40:24.393Z,546.00
2023-05-10T11:41:24.460Z,550.00
2023-05-10T11:42:24.488Z,554.00
2023-05-10T11:43:24.556Z,549.00
2023-05-10T11:44:24.586Z,546.00
2023-05-10T11:45:24.645Z,544.00
2023-05-10T11:46:24.676Z,543.00
2023-05-10T11:47:24.679Z,543.00
2023-05-10T11:48:24.729Z,541.00
2023-05-10T11:49:24.720Z,538.00
2023-05-10T11:50:24.768Z,537.00
2023-05-10T11:51:24.780Z,535.00
2023-05-10T11:52:24.785Z,536.00
2023-05-10T11:53:25.935Z,537.00
2023-05-10T11:54:24.831Z,536.00
2023-05-10T11:55:24.829Z,537.00
2023-05-10T11:56:24.885Z,538.00
2023-05-10T11:57:24.848Z,539.00
2023-05-10T11:58:24.857Z,539.00
2023-05-10T11:59:24.850Z,539.00
2023-05-10T12:00:24.852Z,539.00
2023-05-10T12:01:24.844Z,542.00
2023-05-10T12:02:24.921Z,545.00
2023-05-10T12:03:24.942Z,547.00
2023-05-10T12:04:24.892Z,548.00
2023-05-10T12:05:24.865Z,548.00
2023-05-10T12:06:25.313Z,546.00
2023-05-10T12:07:24.896Z,548.00
2023-05-10T12:08:24.919Z,549.00
2023-05-10T12:09:39.448Z,549.00
2023-05-10T12:10:25.930Z,548.00
2023-05-10T12:11:25.311Z,549.00
2023-05-10T12:12:24.910Z,548.00
2023-05-10T12:13:24.912Z,548.00
2023-05-10T12:14:24.954Z,548.00
2023-05-10T12:15:24.880Z,547.00
2023-05-10T12:16:25.361Z,548.00
2023-05-10T12:17:24.882Z,548.00
2023-05-10T12:18:24.910Z,547.00
2023-05-10T12:19:24.931Z,546.00
2023-05-10T12:20:24.972Z,543.00
2023-05-10T12:21:25.037Z,544.00
2023-05-10T12:22:25.108Z,542.00
2023-05-10T12:23:25.144Z,544.00
2023-05-10T12:24:25.206Z,542.00
2023-05-10T12:25:25.273Z,542.00
2023-05-10T12:26:25.336Z,542.00
2023-05-10T12:27:25.405Z,543.00